Time;durP1;ratioP1;P1;durP2;ratioP2;P2;SDS_P1;SDS_P2;PMS_P1;PMS_P2;Temp;Humidity;BMP_temperature;BMP_pressure;BME280_temperature;BME280_humidity;BME280_pressure;Samples;Min_cycle;Max_cycle;Signal;HPM_P1;HPM_P2
2021/12/24 00:01:59;;;;;;;6.28;3.10;;;8.90;93.80;;;;;;5093046;28;20024;-78
2021/12/24 00:04:26;;;;;;;7.47;3.20;;;8.90;93.80;;;;;;5105454;28;20408;-77
2021/12/24 00:06:53;;;;;;;7.93;3.28;;;9.00;93.70;;;;;;5099363;28;20428;-77
2021/12/24 00:09:22;;;;;;;6.10;2.95;;;9.00;93.60;;;;;;5100570;28;20119;-77
2021/12/24 00:11:50;;;;;;;6.18;2.65;;;9.10;93.40;;;;;;5099563;28;20025;-77
2021/12/24 00:14:16;;;;;;;7.30;2.95;;;9.20;93.20;;;;;;5086636;28;20039;-77
2021/12/24 00:16:47;;;;;;;6.47;3.20;;;9.30;93.00;;;;;;5102652;28;20020;-77
2021/12/24 00:35:34;;;;;;;8.90;3.08;;;9.40;92.20;;;;;;5104609;28;20027;-77
2021/12/24 00:38:03;;;;;;;5.32;2.50;;;9.50;92.00;;;;;;5083604;28;20374;-77
2021/12/24 00:40:37;;;;;;;6.28;2.63;;;9.40;92.20;;;;;;5090424;28;20031;-78
2021/12/24 00:43:06;;;;;;;8.50;2.63;;;9.40;92.00;;;;;;5096817;28;20034;-77
2021/12/24 00:45:36;;;;;;;6.03;2.80;;;9.40;92.00;;;;;;5100956;28;20142;-77
2021/12/24 00:48:03;;;;;;;6.30;2.70;;;9.60;91.40;;;;;;5092752;28;20024;-78
2021/12/24 00:50:45;;;;;;;5.90;2.78;;;9.60;91.20;;;;;;5095600;28;20070;-77
2021/12/24 00:55:02;;;;;;;5.03;2.50;;;9.70;91.10;;;;;;5095864;28;20030;-78
2021/12/24 00:56:01;;;;;;;5.10;2.53;;;9.60;91.30;;;;;;5093492;28;20023;-78
2021/12/24 00:58:27;;;;;;;5.50;2.72;;;9.60;91.20;;;;;;5091835;28;20032;-78
2021/12/24 01:00:55;;;;;;;5.15;2.45;;;9.70;90.90;;;;;;5091460;28;20024;-77
2021/12/24 01:03:21;;;;;;;6.72;2.70;;;9.80;90.70;;;;;;5111117;28;20016;-77
2021/12/24 01:05:47;;;;;;;6.20;2.80;;;9.80;90.50;;;;;;5106576;28;20110;-78
2021/12/24 01:08:15;;;;;;;5.40;2.25;;;9.70;90.50;;;;;;5099491;28;20031;-78
2021/12/24 01:10:49;;;;;;;6.40;2.35;;;9.80;90.20;;;;;;5101894;28;20047;-77
2021/12/24 01:13:17;;;;;;;7.22;2.42;;;9.80;90.10;;;;;;5104353;28;20059;-78
2021/12/24 01:18:43;;;;;;;5.80;2.20;;;9.80;89.80;;;;;;5114011;28;20012;-78
2021/12/24 01:23:56;;;;;;;6.95;2.67;;;9.70;89.90;;;;;;5109554;28;20257;-78
2021/12/24 01:40:22;;;;;;;4.28;2.10;;;9.90;89.10;;;;;;5100587;28;20118;-78
2021/12/24 01:42:49;;;;;;;5.70;2.20;;;9.80;89.30;;;;;;5100679;28;20089;-78
2021/12/24 01:45:25;;;;;;;5.22;1.80;;;9.80;89.30;;;;;;5102390;28;20049;-78
2021/12/24 01:47:57;;;;;;;5.00;2.33;;;9.90;89.20;;;;;;5106682;28;20427;-77
2021/12/24 01:50:25;;;;;;;5.63;2.20;;;9.90;89.20;;;;;;5106461;27;20024;-78
2021/12/24 01:52:53;;;;;;;5.30;2.00;;;9.80;89.40;;;;;;5103329;28;20311;-78
2021/12/24 01:55:20;;;;;;;5.45;2.58;;;9.80;89.20;;;;;;5109771;28;20016;-77
2021/12/24 01:57:46;;;;;;;5.20;2.20;;;9.90;88.90;;;;;;5104451;28;20034;-77
2021/12/24 02:00:18;;;;;;;3.70;1.95;;;9.80;88.90;;;;;;5106440;28;20024;-78
2021/12/24 02:02:44;;;;;;;4.90;1.90;;;9.70;89.20;;;;;;5104696;28;20035;-77
2021/12/24 02:05:10;;;;;;;5.25;2.25;;;9.90;88.90;;;;;;5105534;28;20027;-77
2021/12/24 02:07:36;;;;;;;3.90;1.98;;;9.90;88.70;;;;;;5099576;28;20028;-78
2021/12/24 02:10:08;;;;;;;5.55;2.33;;;9.80;89.00;;;;;;5105598;28;20043;-78
2021/12/24 02:12:35;;;;;;;6.85;2.22;;;9.70;89.20;;;;;;5096541;28;20026;-78
2021/12/24 02:15:05;;;;;;;4.32;2.17;;;9.70;89.20;;;;;;5096318;28;20030;-78
2021/12/24 02:28:22;;;;;;;;;;;9.60;89.60;;;;;;5100845;28;20044;-78
2021/12/24 02:30:48;;;;;;;7.93;2.78;;;9.60;89.50;;;;;;5099926;28;20262;-78
2021/12/24 02:33:16;;;;;;;5.80;2.13;;;9.70;89.50;;;;;;5108420;28;20046;-78
2021/12/24 02:35:41;;;;;;;7.03;2.70;;;9.60;89.80;;;;;;5111724;28;20416;-78
2021/12/24 02:38:08;;;;;;;6.40;2.50;;;9.60;89.90;;;;;;5099924;28;20145;-78
2021/12/24 02:40:35;;;;;;;3.85;2.00;;;9.50;89.90;;;;;;5104169;28;20109;-78
2021/12/24 02:43:02;;;;;;;8.27;2.72;;;9.40;90.20;;;;;;5101465;28;20023;-78
2021/12/24 02:45:35;;;;;;;5.70;2.50;;;9.40;90.50;;;;;;5108373;28;20049;-78
2021/12/24 02:56:01;;;;;;;5.60;2.28;;;9.50;90.20;;;;;;5104010;28;20478;-79
2021/12/24 02:58:35;;;;;;;6.15;3.08;;;9.50;90.40;;;;;;5096894;28;20024;-79
2021/12/24 03:01:01;;;;;;;5.10;2.20;;;9.50;90.40;;;;;;5093332;28;20092;-79
2021/12/24 03:03:26;;;;;;;5.90;2.30;;;9.50;90.50;;;;;;5113122;28;20105;-78
2021/12/24 03:05:52;;;;;;;5.03;2.20;;;9.50;90.60;;;;;;5110444;28;20036;-79
2021/12/24 03:08:18;;;;;;;5.47;2.22;;;9.40;90.70;;;;;;5110368;28;20077;-79
2021/12/24 03:10:43;;;;;;;4.65;2.30;;;9.40;90.90;;;;;;5107041;28;20297;-78
2021/12/24 03:13:09;;;;;;;10.07;2.80;;;9.30;91.20;;;;;;5096383;28;20031;-79
2021/12/24 03:15:35;;;;;;;7.15;2.95;;;9.20;91.60;;;;;;5104712;28;20187;-79
2021/12/24 03:18:01;;;;;;;6.93;2.70;;;9.10;92.00;;;;;;5110771;28;20023;-78
2021/12/24 03:20:32;;;;;;;5.00;2.90;;;9.00;92.50;;;;;;5096191;28;20039;-79
2021/12/24 03:23:07;;;;;;;4.20;2.10;;;8.90;92.80;;;;;;5105597;28;20024;-79
2021/12/24 03:25:33;;;;;;;5.47;2.50;;;8.90;92.80;;;;;;5106770;28;20473;-79
2021/12/24 03:27:59;;;;;;;4.95;2.42;;;8.90;92.90;;;;;;5108235;28;20031;-80
2021/12/24 03:30:26;;;;;;;4.65;2.60;;;8.90;93.00;;;;;;5095073;28;20032;-79
2021/12/24 03:32:51;;;;;;;9.40;2.88;;;8.90;92.90;;;;;;5101621;28;20389;-79
2021/12/24 03:35:17;;;;;;;5.85;2.50;;;9.00;92.90;;;;;;5111618;28;20016;-80
2021/12/24 03:37:43;;;;;;;6.05;2.80;;;9.00;92.90;;;;;;5110314;28;20020;-80
2021/12/24 03:40:09;;;;;;;7.15;2.60;;;9.00;92.80;;;;;;5106241;28;20038;-80
2021/12/24 03:42:38;;;;;;;5.20;2.25;;;9.00;92.80;;;;;;5103767;28;20020;-80
2021/12/24 03:45:20;;;;;;;5.28;2.53;;;8.90;92.90;;;;;;5106732;28;20027;-80
2021/12/24 03:47:53;;;;;;;4.80;2.50;;;8.90;93.10;;;;;;5104346;28;20050;-80
2021/12/24 03:50:18;;;;;;;7.68;2.75;;;8.80;93.30;;;;;;5095039;28;20106;-79
2021/12/24 03:53:03;;;;;;;4.38;2.33;;;8.80;93.40;;;;;;5103462;28;20107;-80
2021/12/24 03:55:29;;;;;;;6.32;2.60;;;8.80;93.40;;;;;;5110201;28;20020;-79
2021/12/24 03:57:54;;;;;;;5.55;2.55;;;8.70;93.50;;;;;;5108314;28;20107;-79
2021/12/24 04:00:26;;;;;;;4.72;2.53;;;8.60;93.80;;;;;;5109603;28;20024;-79
2021/12/24 04:02:51;;;;;;;4.82;2.47;;;8.60;94.10;;;;;;5099555;28;20023;-79
2021/12/24 04:05:18;;;;;;;6.05;2.70;;;8.50;94.20;;;;;;5108455;28;20096;-79
2021/12/24 04:07:43;;;;;;;6.18;2.80;;;8.60;94.00;;;;;;5100273;28;20028;-78
2021/12/24 04:10:39;;;;;;;6.30;3.30;;;8.60;94.20;;;;;;5095785;28;20062;-80
2021/12/24 04:13:05;;;;;;;5.53;2.60;;;8.50;94.30;;;;;;5100988;28;20384;-81
2021/12/24 04:15:46;;;;;;;8.15;3.78;;;8.50;94.50;;;;;;5067537;28;20457;-80
2021/12/24 04:18:21;;;;;;;6.20;2.80;;;8.60;94.50;;;;;;5048762;28;20025;-80
2021/12/24 04:26:16;;;;;;;7.65;3.25;;;8.60;94.40;;;;;;5050451;28;20039;-80
2021/12/24 04:28:42;;;;;;;4.85;2.67;;;8.50;94.70;;;;;;5054129;28;20041;-80
2021/12/24 04:31:08;;;;;;;5.13;2.53;;;8.50;94.90;;;;;;5048266;28;20086;-79
2021/12/24 04:33:39;;;;;;;5.88;2.80;;;8.60;94.60;;;;;;5045067;28;20325;-79
2021/12/24 04:53:10;;;;;;;5.82;3.03;;;8.50;94.70;;;;;;5047654;28;20060;-80
2021/12/24 05:03:36;;;;;;;6.90;2.88;;;8.30;95.30;;;;;;5052241;28;20449;-80
2021/12/24 05:06:51;;;;;;;5.43;2.97;;;8.20;95.60;;;;;;5049149;28;20040;-80
2021/12/24 05:09:04;;;;;;;7.85;2.58;;;8.20;95.80;;;;;;5045216;28;20026;-80
2021/12/24 05:11:29;;;;;;;7.10;2.90;;;8.30;95.70;;;;;;5048973;28;20108;-80
2021/12/24 05:13:55;;;;;;;5.93;3.10;;;8.30;95.50;;;;;;5050578;28;20370;-79
2021/12/24 05:16:25;;;;;;;6.35;3.40;;;8.30;95.60;;;;;;5050900;28;20013;-80
2021/12/24 05:21:42;;;;;;;5.13;2.63;;;8.20;95.80;;;;;;5051232;28;20026;-79
2021/12/24 05:24:15;;;;;;;6.18;2.63;;;8.20;95.90;;;;;;5050377;28;20368;-80
2021/12/24 05:26:43;;;;;;;5.13;2.63;;;8.20;95.90;;;;;;5039664;28;20030;-80
2021/12/24 05:29:09;;;;;;;6.97;3.20;;;8.20;95.80;;;;;;5038001;28;20049;-79
2021/12/24 05:31:35;;;;;;;6.07;2.75;;;8.20;95.70;;;;;;5038067;28;20029;-79
2021/12/24 05:34:01;;;;;;;5.43;2.90;;;8.20;95.60;;;;;;5038178;28;20029;-79
2021/12/24 05:36:27;;;;;;;6.20;3.30;;;8.20;95.70;;;;;;5038179;28;20096;-79
2021/12/24 05:38:53;;;;;;;8.10;2.95;;;8.10;95.70;;;;;;5035170;28;20112;-80
2021/12/24 05:41:21;;;;;;;6.40;3.15;;;8.10;95.90;;;;;;5038146;28;20060;-80
2021/12/24 05:43:47;;;;;;;6.68;2.90;;;8.00;95.90;;;;;;5037545;28;20030;-80
2021/12/24 05:46:12;;;;;;;5.25;2.80;;;8.00;96.00;;;;;;5037806;28;20021;-80
2021/12/24 05:48:38;;;;;;;4.90;2.60;;;7.90;96.20;;;;;;5038024;28;20087;-79
2021/12/24 05:51:04;;;;;;;6.55;3.45;;;7.90;96.30;;;;;;5036039;28;20128;-79
2021/12/24 05:53:30;;;;;;;9.98;5.70;;;7.80;96.50;;;;;;5035536;28;20355;-79
2021/12/24 05:55:56;;;;;;;26.58;17.55;;;7.70;96.60;;;;;;5026697;28;20136;-80
2021/12/24 05:58:22;;;;;;;5.43;3.40;;;7.60;96.70;;;;;;5029754;28;20021;-80
2021/12/24 06:00:48;;;;;;;8.75;3.50;;;7.70;96.90;;;;;;5036673;28;20160;-79
2021/12/24 06:03:15;;;;;;;6.93;3.53;;;7.70;97.00;;;;;;5037340;28;20557;-80
2021/12/24 06:05:41;;;;;;;7.57;3.70;;;7.70;96.90;;;;;;5035877;28;20433;-79
2021/12/24 06:08:07;;;;;;;7.65;3.67;;;7.70;96.70;;;;;;5035253;28;20037;-79
2021/12/24 06:10:34;;;;;;;5.78;3.30;;;7.60;96.90;;;;;;5030724;28;20040;-80
2021/12/24 06:13:00;;;;;;;7.93;3.60;;;7.60;97.10;;;;;;5036904;28;20028;-79
2021/12/24 06:15:26;;;;;;;8.30;3.50;;;7.50;97.20;;;;;;5036986;28;20223;-79
2021/12/24 06:17:56;;;;;;;6.38;3.50;;;7.50;97.50;;;;;;5036981;28;20053;-79
2021/12/24 06:20:24;;;;;;;8.18;3.33;;;7.50;97.60;;;;;;5035903;28;20025;-79
2021/12/24 06:22:50;;;;;;;7.28;3.30;;;7.60;97.70;;;;;;5035743;28;20381;-79
2021/12/24 06:25:17;;;;;;;7.63;3.70;;;7.90;97.50;;;;;;5035684;28;20026;-79
2021/12/24 06:27:46;;;;;;;4.93;2.63;;;8.00;97.00;;;;;;5037270;28;20106;-79
2021/12/24 06:30:13;;;;;;;6.78;3.13;;;8.20;96.70;;;;;;5035769;28;20064;-79
2021/12/24 06:32:39;;;;;;;5.70;2.95;;;8.30;96.30;;;;;;5036137;28;20441;-79
2021/12/24 06:35:08;;;;;;;6.97;3.33;;;8.30;96.20;;;;;;5036785;28;20036;-79
2021/12/24 06:37:34;;;;;;;6.82;3.80;;;8.30;96.50;;;;;;5034749;28;20327;-79
2021/12/24 06:40:00;;;;;;;5.57;3.25;;;8.20;96.50;;;;;;5035567;28;20096;-79
2021/12/24 06:42:25;;;;;;;5.57;2.97;;;8.20;96.70;;;;;;5036434;28;20365;-79
2021/12/24 06:44:52;;;;;;;6.50;3.20;;;8.30;96.70;;;;;;5036864;28;20026;-79
2021/12/24 06:47:18;;;;;;;7.07;3.72;;;8.40;96.40;;;;;;5035254;28;20437;-79
2021/12/24 06:49:43;;;;;;;6.55;3.20;;;8.40;96.70;;;;;;5035599;28;20033;-79
2021/12/24 06:52:09;;;;;;;6.50;3.40;;;8.50;96.50;;;;;;5035277;28;20030;-79
2021/12/24 06:54:35;;;;;;;5.93;3.10;;;8.40;96.50;;;;;;5036140;28;20025;-78
2021/12/24 06:57:04;;;;;;;9.35;4.07;;;8.40;96.70;;;;;;5035503;28;20026;-78
2021/12/24 06:59:30;;;;;;;7.50;3.08;;;8.30;96.90;;;;;;5036022;28;20056;-78
2021/12/24 07:01:59;;;;;;;5.75;2.95;;;8.30;96.90;;;;;;5035894;28;20107;-78
2021/12/24 07:04:26;;;;;;;10.25;5.75;;;8.30;96.90;;;;;;5036239;28;20402;-81
2021/12/24 07:06:52;;;;;;;6.28;2.85;;;8.30;97.00;;;;;;5035456;28;20043;-80
2021/12/24 07:09:17;;;;;;;7.13;3.25;;;8.30;97.10;;;;;;5036689;28;20029;-79
2021/12/24 07:11:43;;;;;;;6.10;3.00;;;8.30;97.10;;;;;;5037119;28;20489;-79
2021/12/24 07:14:09;;;;;;;10.02;4.00;;;8.30;97.20;;;;;;5037954;28;20037;-79
2021/12/24 07:16:35;;;;;;;5.95;3.20;;;8.30;97.30;;;;;;5034418;28;20369;-80
2021/12/24 07:19:01;;;;;;;5.22;2.97;;;8.20;97.50;;;;;;5034957;28;20022;-79
2021/12/24 07:21:27;;;;;;;6.32;3.40;;;8.20;97.60;;;;;;5035718;28;20037;-80
2021/12/24 07:23:53;;;;;;;5.90;3.47;;;8.10;98.00;;;;;;5034503;28;20026;-80
2021/12/24 07:26:19;;;;;;;4.93;2.85;;;8.10;98.00;;;;;;5034962;28;20048;-79
2021/12/24 07:28:45;;;;;;;5.38;3.00;;;8.00;98.00;;;;;;5036411;28;20037;-79
2021/12/24 07:31:10;;;;;;;7.70;3.08;;;8.00;98.00;;;;;;5036386;28;20152;-79
2021/12/24 07:33:36;;;;;;;8.25;3.30;;;8.10;98.00;;;;;;5035705;28;20065;-79
2021/12/24 07:36:02;;;;;;;7.85;3.50;;;8.10;98.00;;;;;;5035674;28;20028;-79
2021/12/24 07:38:27;;;;;;;7.13;3.78;;;8.00;98.00;;;;;;5034237;28;20021;-79
2021/12/24 07:40:53;;;;;;;6.60;3.35;;;7.90;98.00;;;;;;5034735;28;20326;-79
2021/12/24 07:43:19;;;;;;;6.90;3.42;;;7.90;98.00;;;;;;5034467;28;20457;-79
2021/12/24 07:45:46;;;;;;;6.82;3.42;;;7.90;98.00;;;;;;5034129;28;20052;-79
2021/12/24 07:48:14;;;;;;;6.28;3.40;;;7.90;98.00;;;;;;5034341;28;20044;-80
2021/12/24 07:53:10;;;;;;;6.60;3.35;;;7.90;98.00;;;;;;5034183;28;20345;-79
2021/12/24 07:55:37;;;;;;;6.88;3.28;;;7.90;98.00;;;;;;5033511;28;20063;-79
2021/12/24 07:58:04;;;;;;;7.35;3.55;;;8.00;98.00;;;;;;5033696;28;20022;-80
2021/12/24 08:00:30;;;;;;;5.65;3.13;;;8.00;98.00;;;;;;5034860;28;20041;-79
2021/12/24 08:02:57;;;;;;;8.88;3.28;;;8.00;98.00;;;;;;5034547;28;20041;-80
2021/12/24 08:05:25;;;;;;;5.72;3.20;;;8.00;98.00;;;;;;5034136;28;20033;-80
2021/12/24 08:07:52;;;;;;;7.40;3.95;;;7.90;98.00;;;;;;5032313;28;20029;-80
2021/12/24 08:10:20;;;;;;;32.50;4.95;;;8.00;98.00;;;;;;5033951;28;20026;-80
2021/12/24 08:12:46;;;;;;;5.38;3.05;;;8.00;98.00;;;;;;5060207;28;20044;-80
2021/12/24 08:15:12;;;;;;;5.97;3.13;;;8.20;98.00;;;;;;5034035;28;20099;-80
2021/12/24 08:17:38;;;;;;;8.40;3.13;;;8.20;98.00;;;;;;5034629;28;20326;-80
2021/12/24 08:20:05;;;;;;;6.47;3.20;;;8.20;98.00;;;;;;5033144;28;20025;-80
2021/12/24 08:22:31;;;;;;;7.95;3.30;;;8.10;98.00;;;;;;5033399;28;20022;-80
2021/12/24 08:24:57;;;;;;;8.00;3.40;;;8.10;98.00;;;;;;5031712;28;20456;-80
2021/12/24 08:27:23;;;;;;;6.85;3.35;;;8.10;98.00;;;;;;5034226;28;20045;-80
2021/12/24 08:29:49;;;;;;;6.93;3.53;;;8.10;98.00;;;;;;5034827;28;20037;-80
2021/12/24 08:32:14;;;;;;;7.15;3.25;;;8.10;98.00;;;;;;5034426;28;20037;-80
2021/12/24 08:34:40;;;;;;;6.70;3.20;;;8.10;98.00;;;;;;5034887;28;20029;-80
2021/12/24 08:37:07;;;;;;;8.30;4.00;;;8.10;98.00;;;;;;5031631;28;20104;-80
2021/12/24 08:39:33;;;;;;;6.97;3.10;;;8.20;98.00;;;;;;5034890;28;20025;-80
2021/12/24 08:41:59;;;;;;;6.10;3.33;;;8.20;98.00;;;;;;5032433;28;20029;-80
2021/12/24 08:44:33;;;;;;;6.13;3.10;;;8.20;98.00;;;;;;5032515;28;20415;-79
2021/12/24 08:47:03;;;;;;;6.78;3.10;;;8.20;98.00;;;;;;5047342;28;20029;-78
2021/12/24 08:49:30;;;;;;;4.43;2.50;;;8.20;98.00;;;;;;5032593;28;20072;-80
2021/12/24 08:51:57;;;;;;;5.05;2.90;;;8.30;98.00;;;;;;5031475;28;20037;-79
2021/12/24 08:54:24;;;;;;;5.50;2.75;;;8.30;98.00;;;;;;5033900;28;20036;-79
2021/12/24 08:56:51;;;;;;;5.50;2.72;;;8.40;98.00;;;;;;5029202;28;20025;-80
2021/12/24 08:59:16;;;;;;;6.35;2.90;;;8.30;98.00;;;;;;5034068;28;20025;-80
2021/12/24 09:01:43;;;;;;;5.07;2.90;;;8.40;98.00;;;;;;5035531;28;20037;-79
2021/12/24 09:04:13;;;;;;;5.10;2.70;;;8.50;98.00;;;;;;5037990;28;20049;-79
2021/12/24 09:06:39;;;;;;;6.43;2.67;;;8.50;98.00;;;;;;5036474;28;20036;-79
2021/12/24 09:09:06;;;;;;;6.20;3.20;;;8.50;98.00;;;;;;5036389;28;20043;-80
2021/12/24 09:11:36;;;;;;;5.65;2.78;;;8.50;98.00;;;;;;5038186;28;20029;-79
2021/12/24 09:14:02;;;;;;;4.95;2.67;;;8.50;98.00;;;;;;5036757;28;20124;-79
2021/12/24 09:16:29;;;;;;;3.72;2.20;;;8.50;98.00;;;;;;5037293;28;20417;-80
2021/12/24 09:19:01;;;;;;;7.65;3.88;;;8.60;98.00;;;;;;5036966;28;20029;-79
2021/12/24 09:21:28;;;;;;;5.28;2.47;;;8.60;98.00;;;;;;5038338;28;20433;-79
2021/12/24 09:23:58;;;;;;;5.20;2.50;;;8.60;98.00;;;;;;5036111;28;20032;-80
2021/12/24 09:26:29;;;;;;;3.30;1.60;;;8.60;98.00;;;;;;5038606;28;20033;-79
2021/12/24 09:28:56;;;;;;;3.13;1.80;;;8.60;97.80;;;;;;5037386;28;20032;-80
2021/12/24 09:31:23;;;;;;;3.83;1.83;;;8.60;97.90;;;;;;5038338;28;20029;-80
2021/12/24 09:33:48;;;;;;;3.85;1.98;;;8.60;97.90;;;;;;5037179;28;20052;-79
2021/12/24 09:36:14;;;;;;;4.85;2.90;;;8.60;97.90;;;;;;5038234;28;20053;-79
2021/12/24 09:38:40;;;;;;;4.55;2.45;;;8.60;98.00;;;;;;5036208;28;20024;-79
2021/12/24 09:41:06;;;;;;;4.47;2.20;;;8.50;98.00;;;;;;5037099;28;20029;-80
2021/12/24 09:43:31;;;;;;;5.00;2.70;;;8.40;98.00;;;;;;5039930;28;20030;-80
2021/12/24 09:45:57;;;;;;;6.97;3.80;;;8.30;98.00;;;;;;5046012;28;20109;-79
2021/12/24 09:48:23;;;;;;;16.50;7.65;;;8.20;98.00;;;;;;5036755;28;20037;-79
2021/12/24 09:50:48;;;;;;;4.60;2.72;;;8.20;98.00;;;;;;5038059;28;20099;-78
2021/12/24 09:53:14;;;;;;;5.32;2.70;;;8.20;98.00;;;;;;5035697;28;20025;-79
2021/12/24 09:55:41;;;;;;;25.00;11.02;;;8.30;98.00;;;;;;5038197;28;20041;-79
2021/12/24 09:58:06;;;;;;;3.40;1.60;;;8.30;98.00;;;;;;5037736;28;20021;-78
2021/12/24 10:00:32;;;;;;;3.03;1.52;;;8.30;98.00;;;;;;5037975;28;20116;-80
2021/12/24 10:03:00;;;;;;;5.15;2.60;;;8.20;98.00;;;;;;5036862;28;20025;-80
2021/12/24 10:05:42;;;;;;;3.92;2.08;;;8.20;98.00;;;;;;5052707;28;20065;-81
2021/12/24 10:08:17;;;;;;;2.85;1.52;;;8.10;98.00;;;;;;5035301;28;20101;-80
2021/12/24 10:10:45;;;;;;;5.05;3.08;;;7.90;98.00;;;;;;5035120;28;20022;-80
2021/12/24 10:13:44;;;;;;;4.70;2.50;;;7.80;98.00;;;;;;5033069;28;20101;-80
2021/12/24 10:16:20;;;;;;;3.70;1.65;;;7.60;98.00;;;;;;5013115;28;20450;-80
2021/12/24 10:18:50;;;;;;;3.90;2.10;;;7.50;98.00;;;;;;5035085;28;20055;-80
2021/12/24 10:21:36;;;;;;;6.53;3.15;;;7.40;98.00;;;;;;5035093;28;20083;-81
2021/12/24 10:24:04;;;;;;;2.83;1.48;;;7.40;98.00;;;;;;5018257;28;20048;-80
2021/12/24 10:26:35;;;;;;;3.78;1.95;;;7.40;98.00;;;;;;5034954;28;20437;-81
2021/12/24 10:29:10;;;;;;;2.88;1.42;;;7.40;98.00;;;;;;5015380;28;20034;-81
2021/12/24 10:31:53;;;;;;;4.32;1.90;;;7.50;98.00;;;;;;5026851;28;20040;-80
2021/12/24 10:34:28;;;;;;;4.60;1.70;;;7.40;98.00;;;;;;5036271;28;20079;-81
2021/12/24 10:37:03;;;;;;;5.53;1.70;;;7.40;98.00;;;;;;5034563;28;20284;-80
2021/12/24 10:39:45;;;;;;;2.35;1.20;;;7.40;98.00;;;;;;5038144;28;20434;-80
2021/12/24 10:42:32;;;;;;;3.22;1.45;;;7.50;98.00;;;;;;5036346;28;20033;-80
2021/12/24 10:45:00;;;;;;;2.97;1.30;;;7.50;98.00;;;;;;5033029;28;20021;-79
2021/12/24 10:47:35;;;;;;;2.47;1.33;;;7.50;98.00;;;;;;5034615;28;20026;-78
2021/12/24 10:50:30;;;;;;;1.80;1.05;;;7.50;98.00;;;;;;5034486;28;20021;-79
2021/12/24 10:53:31;;;;;;;1.95;1.08;;;7.60;98.00;;;;;;5031165;28;20031;-79
2021/12/24 10:55:57;;;;;;;1.88;0.95;;;7.60;98.00;;;;;;5030720;28;20018;-79
2021/12/24 10:58:26;;;;;;;1.50;0.98;;;7.60;98.00;;;;;;5034422;28;20056;-78
2021/12/24 11:00:58;;;;;;;2.47;1.23;;;7.60;98.00;;;;;;5032597;28;20017;-79
2021/12/24 11:03:32;;;;;;;3.30;1.63;;;7.70;98.00;;;;;;5033936;28;20018;-79
2021/12/24 11:06:03;;;;;;;;;;;7.70;98.00;;;;;;5036977;28;20022;-79
2021/12/24 11:08:30;;;;;;;2.38;1.15;;;7.60;98.00;;;;;;5045062;28;19963;-79
2021/12/24 11:11:00;;;;;;;1.77;1.00;;;7.50;98.00;;;;;;5033906;28;20036;-79
2021/12/24 11:13:39;;;;;;;3.15;1.52;;;7.60;98.00;;;;;;5033926;28;20025;-79
2021/12/24 11:16:07;;;;;;;2.83;1.45;;;7.60;98.00;;;;;;5033923;28;20030;-80
2021/12/24 11:18:35;;;;;;;1.15;0.80;;;7.60;98.00;;;;;;5033201;28;20030;-80
2021/12/24 11:21:05;;;;;;;1.50;1.00;;;7.60;98.00;;;;;;5033162;28;20017;-80
2021/12/24 11:23:36;;;;;;;1.85;0.90;;;7.60;98.00;;;;;;5034671;28;20027;-80
2021/12/24 11:26:25;;;;;;;4.07;1.88;;;7.70;98.00;;;;;;5033651;28;20155;-80
2021/12/24 11:28:51;;;;;;;1.48;1.05;;;7.70;98.00;;;;;;5030307;28;20033;-80
2021/12/24 11:31:26;;;;;;;2.30;1.25;;;7.70;98.00;;;;;;5032507;28;20021;-80
2021/12/24 11:33:53;;;;;;;2.95;1.48;;;7.70;98.00;;;;;;5032235;28;20076;-80
2021/12/24 11:36:23;;;;;;;4.80;1.80;;;7.60;98.00;;;;;;5032995;28;20021;-80
2021/12/24 11:38:57;;;;;;;5.20;2.15;;;7.70;98.00;;;;;;5032340;28;20017;-80
2021/12/24 11:41:28;;;;;;;3.78;1.60;;;7.70;98.00;;;;;;5030343;28;20103;-79
2021/12/24 11:43:56;;;;;;;1.58;1.10;;;7.70;98.00;;;;;;5033320;28;20337;-80
2021/12/24 11:46:24;;;;;;;3.08;1.30;;;7.70;98.00;;;;;;5032915;28;20021;-79
2021/12/24 11:48:52;;;;;;;3.08;1.27;;;7.70;98.00;;;;;;5033482;28;20031;-79
2021/12/24 11:51:30;;;;;;;3.95;1.70;;;7.70;98.00;;;;;;5030601;28;20021;-80
2021/12/24 11:54:05;;;;;;;3.80;1.60;;;7.80;98.00;;;;;;5029872;28;20037;-79
2021/12/24 11:56:50;;;;;;;3.08;1.50;;;7.80;98.00;;;;;;5032964;28;20300;-79
2021/12/24 11:59:18;;;;;;;3.35;1.55;;;7.80;98.00;;;;;;5033506;28;20155;-78
2021/12/24 12:01:44;;;;;;;3.28;1.48;;;7.80;98.00;;;;;;5032899;28;20021;-79
2021/12/24 12:04:16;;;;;;;2.05;1.10;;;7.80;98.00;;;;;;5031274;28;20114;-79
2021/12/24 12:06:42;;;;;;;3.42;1.52;;;7.80;98.00;;;;;;5033437;28;20021;-79
2021/12/24 12:09:11;;;;;;;2.58;1.27;;;7.80;98.00;;;;;;5031498;28;20300;-78
2021/12/24 12:11:40;;;;;;;2.08;1.15;;;7.90;98.00;;;;;;5033712;28;20044;-78
2021/12/24 12:14:27;;;;;;;2.13;1.38;;;7.90;98.00;;;;;;5031057;28;20045;-79
2021/12/24 12:16:58;;;;;;;3.00;1.60;;;7.90;98.00;;;;;;5031678;28;20037;-78
2021/12/24 12:19:39;;;;;;;5.45;2.55;;;8.00;98.00;;;;;;5055941;28;20021;-79
2021/12/24 12:24:58;;;;;;;3.30;1.70;;;8.00;98.00;;;;;;5033121;28;20030;-78
2021/12/24 12:27:51;;;;;;;3.35;1.58;;;8.00;98.00;;;;;;5061090;28;20076;-79
2021/12/24 12:30:17;;;;;;;2.67;1.40;;;8.10;98.00;;;;;;5032229;28;20025;-79
2021/12/24 12:32:43;;;;;;;3.45;1.55;;;8.10;98.00;;;;;;5028412;28;20087;-78
2021/12/24 12:35:09;;;;;;;3.10;1.50;;;8.20;98.00;;;;;;5030848;28;20120;-79
2021/12/24 12:37:53;;;;;;;4.05;1.83;;;8.30;98.00;;;;;;5033925;28;20116;-78
2021/12/24 12:40:19;;;;;;;8.40;3.70;;;8.30;98.00;;;;;;5038501;28;20056;-78
2021/12/24 12:45:20;;;;;;;5.63;2.15;;;8.40;98.00;;;;;;5033326;28;20317;-78
2021/12/24 12:47:57;;;;;;;4.18;2.13;;;8.40;98.00;;;;;;5033549;28;20779;-78
2021/12/24 12:50:28;;;;;;;5.80;2.30;;;8.40;98.00;;;;;;5033295;28;20033;-78
2021/12/24 12:53:29;;;;;;;3.50;1.67;;;8.40;98.00;;;;;;5030494;28;20330;-78
2021/12/24 12:56:20;;;;;;;2.70;1.30;;;8.40;98.00;;;;;;5018236;28;20033;-79
2021/12/24 12:59:04;;;;;;;3.03;1.50;;;8.40;98.00;;;;;;5034280;28;20323;-78
2021/12/24 13:01:31;;;;;;;3.08;1.30;;;8.40;98.00;;;;;;5034455;28;20013;-78
2021/12/24 13:04:00;;;;;;;3.92;1.80;;;8.40;98.00;;;;;;5041133;28;20090;-77
2021/12/24 13:06:41;;;;;;;1.88;1.08;;;8.50;98.00;;;;;;5037383;28;20033;-77
2021/12/24 13:09:19;;;;;;;2.28;1.38;;;8.50;98.00;;;;;;5033299;28;20028;-77
2021/12/24 13:11:47;;;;;;;4.07;2.08;;;8.50;98.00;;;;;;5033743;28;20266;-77
2021/12/24 13:14:15;;;;;;;3.20;1.63;;;8.50;98.00;;;;;;5035190;28;20056;-77
2021/12/24 13:16:51;;;;;;;2.97;1.40;;;8.50;98.00;;;;;;5034018;28;20104;-77
2021/12/24 13:24:53;;;;;;;4.95;2.10;;;8.50;98.00;;;;;;5034519;28;20041;-77
2021/12/24 13:27:20;;;;;;;2.15;1.20;;;8.50;98.00;;;;;;5030392;28;20113;-78
2021/12/24 13:29:46;;;;;;;5.15;2.42;;;8.60;98.00;;;;;;5033300;28;20422;-77
2021/12/24 13:32:12;;;;;;;5.72;2.60;;;8.60;98.00;;;;;;5033081;28;20084;-77
2021/12/24 13:34:38;;;;;;;3.58;1.40;;;8.50;98.00;;;;;;5031518;28;20321;-77
2021/12/24 13:37:15;;;;;;;2.00;1.20;;;8.50;98.00;;;;;;5031948;28;20028;-78
2021/12/24 13:39:47;;;;;;;3.60;1.73;;;8.40;98.00;;;;;;5034229;28;20030;-78
2021/12/24 13:42:13;;;;;;;2.95;1.60;;;8.40;98.00;;;;;;5031700;28;20021;-77
2021/12/24 13:44:39;;;;;;;4.18;1.40;;;8.50;98.00;;;;;;5034328;28;20033;-77
2021/12/24 13:47:17;;;;;;;3.53;1.60;;;8.50;98.00;;;;;;5032400;28;20038;-78
2021/12/24 13:55:22;;;;;;;2.50;1.17;;;8.30;98.00;;;;;;5033669;28;20060;-78
2021/12/24 13:58:03;;;;;;;2.20;1.20;;;8.20;98.00;;;;;;5032447;28;20120;-77
2021/12/24 14:00:31;;;;;;;2.97;1.67;;;8.20;98.00;;;;;;5035331;28;20053;-77
2021/12/24 14:02:59;;;;;;;2.22;1.10;;;8.10;98.00;;;;;;5038279;28;20859;-77
2021/12/24 14:05:28;;;;;;;2.53;1.30;;;8.10;98.00;;;;;;5033361;28;20144;-77
2021/12/24 14:08:13;;;;;;;2.40;1.20;;;8.10;98.00;;;;;;5027704;28;20045;-78
2021/12/24 14:10:41;;;;;;;2.95;1.38;;;8.20;98.00;;;;;;5030299;28;20026;-78
2021/12/24 14:13:19;;;;;;;2.85;1.42;;;8.20;98.00;;;;;;5033609;28;20415;-77
2021/12/24 14:16:11;;;;;;;3.97;1.50;;;8.20;98.00;;;;;;5032126;28;20041;-77
2021/12/24 14:18:55;;;;;;;3.28;1.60;;;8.20;98.00;;;;;;5032711;28;20022;-78
2021/12/24 14:24:24;;;;;;;3.20;1.60;;;8.30;98.00;;;;;;5034263;28;20037;-77
2021/12/24 14:26:55;;;;;;;3.25;1.40;;;8.30;98.00;;;;;;5014177;28;20026;-77
2021/12/24 14:29:31;;;;;;;4.68;1.65;;;8.40;98.00;;;;;;5026651;28;20029;-77
2021/12/24 14:32:00;;;;;;;4.30;2.00;;;8.50;98.00;;;;;;5030477;28;20105;-77
2021/12/24 14:34:51;;;;;;;3.22;1.63;;;8.50;98.00;;;;;;5032850;28;20036;-77
2021/12/24 14:37:20;;;;;;;2.90;1.50;;;8.50;98.00;;;;;;5027908;28;20483;-78
2021/12/24 14:39:49;;;;;;;2.90;1.50;;;8.50;98.00;;;;;;5033354;28;20048;-76
2021/12/24 14:42:24;;;;;;;5.40;2.00;;;8.50;98.00;;;;;;5032502;28;20768;-76
2021/12/24 14:44:55;;;;;;;3.70;1.52;;;8.40;98.00;;;;;;5031541;28;20377;-76
2021/12/24 14:47:26;;;;;;;3.05;1.40;;;8.50;98.00;;;;;;5032420;28;20021;-76
2021/12/24 14:50:02;;;;;;;2.20;1.10;;;8.50;98.00;;;;;;5032192;28;20116;-76
2021/12/24 14:52:28;;;;;;;4.85;2.38;;;8.50;98.00;;;;;;5030964;28;20034;-78
2021/12/24 14:55:18;;;;;;;3.05;1.63;;;8.50;98.00;;;;;;5031580;28;20040;-76
2021/12/24 14:57:57;;;;;;;2.72;1.52;;;8.40;98.00;;;;;;5030646;28;20438;-76
2021/12/24 15:00:50;;;;;;;3.58;1.50;;;8.40;98.00;;;;;;5032385;28;20437;-75
2021/12/24 15:03:18;;;;;;;3.65;1.50;;;8.40;98.00;;;;;;5025819;28;20373;-77